Terminal Aerodrome Forecast
Issued by NWS

Home | Current Version | Previous Version | Text Only | Print | Product List | Glossary On
Versions: 1 2 3 4 5 6 7 8 9 10 11 12 13 14 15 16 17 18 19 20 21 22 23 24 25 26 27 28 29
000
FTUS42 KJAX 281636 AAA
TAFCRG
TAF AMD
KCRG 281636Z 2817/0112 02015G25KT 5SM -RA BR BKN008 OVC015
      TEMPO 2817/2821 3SM RA BR BKN006 OVC015
     FM010000 01010G15KT 5SM -RA BR SCT004 BKN007 OVC015
     FM010600 04007KT 5SM -DZ BR OVC004=

USA.gov is the U.S. government's official web portal to all federal, state and local government web resources and services.